Time;durP1;ratioP1;P1;durP2;ratioP2;P2;SDS_P1;SDS_P2;PMS_P1;PMS_P2;Temp;Humidity;BMP_temperature;BMP_pressure;BME280_temperature;BME280_humidity;BME280_pressure;Samples;Min_cycle;Max_cycle;Signal;HPM_P1;HPM_P2
2023/03/31 00:01:40;;;;;;;16.42;6.07;;;;;;;9.64;100.00;99154.75;5017333;28;20046;-92
2023/03/31 00:04:07;;;;;;;14.45;6.30;;;;;;;9.78;100.00;99174.88;5035585;28;20520;-93
2023/03/31 00:06:40;;;;;;;12.20;6.28;;;;;;;9.84;100.00;99188.06;5023294;28;20046;-92
2023/03/31 00:09:09;;;;;;;15.15;6.07;;;;;;;9.67;100.00;99145.84;5028935;28;20056;-92
2023/03/31 00:11:36;;;;;;;12.55;5.70;;;;;;;9.86;100.00;99175.63;5025629;28;20521;-92
2023/03/31 00:14:02;;;;;;;11.80;5.63;;;;;;;9.70;100.00;99136.97;5030634;28;20033;-93
2023/03/31 00:16:28;;;;;;;12.23;5.28;;;;;;;9.88;100.00;99161.41;5032691;28;20136;-93
2023/03/31 00:18:54;;;;;;;11.18;5.53;;;;;;;9.89;100.00;99154.34;5036795;28;20045;-92
2023/03/31 00:21:23;;;;;;;12.30;5.50;;;;;;;9.76;100.00;99145.72;5028281;28;20041;-93
2023/03/31 00:23:49;;;;;;;16.55;6.07;;;;;;;9.94;100.00;99164.88;5021115;28;20092;-91
2023/03/31 00:26:15;;;;;;;14.30;6.40;;;;;;;9.78;100.00;99127.97;5036269;28;20050;-92
2023/03/31 00:28:42;;;;;;;11.70;5.45;;;;;;;9.97;100.00;99160.34;5027903;28;20045;-92
2023/03/31 00:31:08;;;;;;;14.07;5.35;;;;;;;10.03;100.00;99170.00;5029390;28;20077;-91
2023/03/31 00:33:34;;;;;;;9.77;5.20;;;;;;;9.99;100.00;99153.25;5032557;28;20518;-94
2023/03/31 00:36:00;;;;;;;12.90;4.85;;;;;;;10.01;100.00;99137.28;5033863;28;20037;-95
2023/03/31 00:38:28;;;;;;;11.55;5.68;;;;;;;9.98;100.00;99122.28;5020133;28;20056;-93
2023/03/31 00:40:54;;;;;;;10.63;5.22;;;;;;;10.13;100.00;99146.78;5035943;28;20042;-93
2023/03/31 00:43:29;;;;;;;10.70;4.70;;;;;;;10.08;100.00;99142.47;5022873;28;20042;-94
2023/03/31 00:46:02;;;;;;;14.68;4.50;;;;;;;10.19;100.00;99160.84;5033377;28;20043;-94
2023/03/31 00:48:28;;;;;;;13.90;4.82;;;;;;;10.30;100.00;99157.13;5031077;28;20045;-93
2023/03/31 00:50:56;;;;;;;8.93;5.05;;;;;;;10.36;100.00;99154.34;5035932;28;20050;-92
2023/03/31 00:53:25;;;;;;;9.50;4.80;;;;;;;10.35;100.00;99148.16;5030915;28;20043;-93
2023/03/31 00:55:54;;;;;;;10.32;4.53;;;;;;;10.24;100.00;99119.09;5022000;28;20107;-93
2023/03/31 00:58:27;;;;;;;13.03;5.00;;;;;;;10.29;100.00;99127.00;5017257;28;20048;-93
2023/03/31 01:00:56;;;;;;;16.67;5.43;;;;;;;10.29;100.00;99127.00;5021123;28;20038;-92
2023/03/31 01:03:24;;;;;;;;;;;;;;;10.46;100.00;99145.28;5030061;28;20043;-92
2023/03/31 01:05:53;;;;;;;10.68;5.07;;;;;;;10.35;100.00;99121.59;5035750;28;19921;-93
2023/03/31 01:08:23;;;;;;;10.82;4.50;;;;;;;10.31;100.00;99105.72;5030441;28;20042;-93
2023/03/31 01:10:53;;;;;;;9.57;4.55;;;;;;;10.43;100.00;99111.66;5034003;28;20121;-93
2023/03/31 01:13:20;;;;;;;11.07;4.28;;;;;;;10.45;100.00;99120.50;5031527;28;20095;-93
2023/03/31 01:15:46;;;;;;;8.38;4.50;;;;;;;10.25;100.00;99083.63;5031200;28;20091;-92
2023/03/31 01:18:15;;;;;;;11.68;4.50;;;;;;;10.38;100.00;99081.63;5030204;28;20080;-93
2023/03/31 01:20:55;;;;;;;11.00;4.88;;;;;;;10.31;100.00;99055.22;5024499;28;20041;-94
2023/03/31 01:23:50;;;;;;;11.75;4.53;;;;;;;10.47;100.00;99073.47;5022761;28;20108;-92
2023/03/31 01:26:43;;;;;;;13.18;4.70;;;;;;;10.44;100.00;99077.97;5015183;28;20073;-92
2023/03/31 01:29:26;;;;;;;11.82;5.50;;;;;;;10.37;100.00;99055.09;5015736;28;20461;-94
2023/03/31 01:32:15;;;;;;;10.73;5.05;;;;;;;10.33;100.00;99042.78;5035025;28;20046;-93
2023/03/31 01:35:19;;;;;;;8.77;4.57;;;;;;;10.33;100.00;99032.16;4984992;28;20050;-93
2023/03/31 01:38:25;;;;;;;11.35;4.97;;;;;;;10.46;100.00;99041.59;5029847;28;20137;-93
2023/03/31 01:41:07;;;;;;;10.45;4.80;;;;;;;10.28;100.00;99013.63;5027146;28;20088;-92
2023/03/31 01:43:39;;;;;;;12.20;5.25;;;;;;;10.32;100.00;99027.72;5020160;28;20038;-93
2023/03/31 01:46:18;;;;;;;14.13;5.30;;;;;;;10.18;100.00;99017.38;5023140;28;20056;-92
2023/03/31 01:48:53;;;;;;;13.75;4.78;;;;;;;10.22;100.00;99021.72;5034937;28;20056;-93
2023/03/31 01:51:27;;;;;;;9.90;4.40;;;;;;;10.33;100.00;99032.16;5027993;28;20052;-93
2023/03/31 01:54:01;;;;;;;13.18;4.60;;;;;;;10.37;100.00;99018.75;5021400;28;20042;-93
2023/03/31 01:56:33;;;;;;;10.98;5.05;;;;;;;10.43;100.00;99031.91;5019099;28;20041;-93
2023/03/31 01:59:02;;;;;;;11.73;5.15;;;;;;;10.45;100.00;99027.44;5044211;28;20045;-93
2023/03/31 02:01:34;;;;;;;13.15;5.35;;;;;;;10.41;100.00;99012.47;5022578;28;20041;-92
2023/03/31 02:04:06;;;;;;;12.32;5.03;;;;;;;10.34;100.00;98986.91;5031843;28;20037;-91
2023/03/31 02:06:38;;;;;;;8.25;5.00;;;;;;;10.48;100.00;98999.91;5016894;28;20068;-92
2023/03/31 02:09:09;;;;;;;12.15;5.18;;;;;;;10.48;100.00;98994.59;5025680;28;20482;-93
2023/03/31 02:11:38;;;;;;;11.60;5.35;;;;;;;10.46;100.00;99002.59;5031395;28;20046;-93
2023/03/31 02:14:09;;;;;;;12.98;5.32;;;;;;;10.56;100.00;99005.03;5033705;28;20053;-92
2023/03/31 02:16:40;;;;;;;14.27;4.97;;;;;;;10.39;100.00;98982.38;5024551;28;20050;-92
2023/03/31 02:19:09;;;;;;;10.70;4.72;;;;;;;10.41;100.00;98988.53;5032393;28;20045;-92
2023/03/31 02:21:38;;;;;;;12.43;4.70;;;;;;;10.67;100.00;99016.31;5027261;28;20038;-93
2023/03/31 02:24:09;;;;;;;12.10;4.82;;;;;;;10.51;100.00;98978.53;5024414;28;20041;-93
2023/03/31 02:26:41;;;;;;;9.05;4.57;;;;;;;10.62;100.00;98995.13;5026393;28;20038;-92
2023/03/31 02:29:07;;;;;;;13.82;5.68;;;;;;;10.54;100.00;98980.25;5033026;28;20068;-92
2023/03/31 02:31:40;;;;;;;11.93;4.72;;;;;;;10.60;100.00;98988.94;5014848;28;20049;-92
2023/03/31 02:34:06;;;;;;;9.25;4.97;;;;;;;10.62;100.00;98986.28;5032024;28;20046;-93
2023/03/31 02:36:33;;;;;;;10.85;5.32;;;;;;;10.48;100.00;98965.34;5023899;28;20042;-93
2023/03/31 02:39:04;;;;;;;11.45;5.50;;;;;;;10.55;100.00;98958.09;5016326;28;20061;-94
2023/03/31 02:41:30;;;;;;;14.63;5.28;;;;;;;10.64;100.00;98964.03;5030198;28;20114;-92
2023/03/31 02:43:58;;;;;;;12.38;5.28;;;;;;;10.48;100.00;98942.28;5021658;28;20103;-94
2023/03/31 02:46:24;;;;;;;13.38;5.60;;;;;;;10.47;100.00;98943.19;5026355;28;20072;-91
2023/03/31 02:48:54;;;;;;;10.80;5.35;;;;;;;10.43;100.00;98936.19;5023195;28;20053;-95
2023/03/31 02:51:44;;;;;;;13.93;5.30;;;;;;;10.52;100.00;98937.75;5025095;28;20105;-93
2023/03/31 02:54:27;;;;;;;11.00;4.80;;;;;;;10.53;100.00;98957.25;5025454;28;20033;-92
2023/03/31 02:57:16;;;;;;;11.70;5.95;;;;;;;10.59;100.00;98949.13;5028317;28;20072;-93
2023/03/31 02:59:53;;;;;;;9.05;5.25;;;;;;;10.56;100.00;98950.09;5015989;28;20105;-93
2023/03/31 03:02:31;;;;;;;10.68;5.50;;;;;;;10.62;100.00;98955.22;5028422;28;20041;-93
2023/03/31 03:05:11;;;;;;;12.98;5.50;;;;;;;10.47;100.00;98934.31;5021326;28;20038;-93
2023/03/31 03:07:48;;;;;;;10.70;5.75;;;;;;;10.62;100.00;98949.03;5024312;28;20041;-93
2023/03/31 03:10:20;;;;;;;10.25;5.45;;;;;;;10.66;100.00;98953.38;5028899;28;20034;-93
2023/03/31 03:12:55;;;;;;;10.45;5.65;;;;;;;10.63;100.00;98945.47;5035156;28;20096;-94
2023/03/31 03:15:27;;;;;;;10.10;5.10;;;;;;;10.56;100.00;98919.94;5031324;28;20037;-93
2023/03/31 03:17:55;;;;;;;16.23;5.70;;;;;;;10.54;100.00;98906.69;5020129;28;20042;-95
2023/03/31 03:20:21;;;;;;;8.27;4.83;;;;;;;10.54;100.00;98892.50;5032554;28;20048;-94
2023/03/31 03:22:47;;;;;;;9.35;4.90;;;;;;;10.54;100.00;98901.38;5031241;28;20456;-94
2023/03/31 03:25:16;;;;;;;10.82;5.10;;;;;;;10.60;100.00;98913.63;5023052;28;20569;-93
2023/03/31 03:27:41;;;;;;;10.75;4.78;;;;;;;10.54;100.00;98908.47;5037763;28;20040;-95
2023/03/31 03:30:10;;;;;;;9.75;5.57;;;;;;;10.53;100.00;98910.25;5033076;28;20041;-92
2023/03/31 03:32:37;;;;;;;10.38;5.97;;;;;;;10.50;100.00;98907.69;5026417;28;20038;-93
2023/03/31 03:35:05;;;;;;;13.18;5.53;;;;;;;10.60;100.00;98914.50;5026314;28;20120;-93
2023/03/31 03:37:31;;;;;;;10.13;5.03;;;;;;;10.62;100.00;98914.47;5023792;28;20049;-94
2023/03/31 03:39:57;;;;;;;12.38;5.70;;;;;;;10.42;100.00;98875.09;5033397;28;20041;-93
2023/03/31 03:42:23;;;;;;;10.68;4.93;;;;;;;10.42;100.00;98883.06;5033104;28;20041;-93
2023/03/31 03:44:49;;;;;;;13.10;5.47;;;;;;;10.60;100.00;98913.63;5037243;28;20049;-94
2023/03/31 03:47:15;;;;;;;11.13;5.47;;;;;;;10.61;100.00;98915.41;5034383;28;20041;-94
2023/03/31 03:49:42;;;;;;;11.10;5.38;;;;;;;10.60;100.00;98900.34;5029532;28;20125;-93
2023/03/31 03:52:08;;;;;;;11.50;5.47;;;;;;;10.59;100.00;98911.91;5027278;28;20041;-93
2023/03/31 03:54:34;;;;;;;12.23;4.90;;;;;;;10.56;100.00;98903.97;5031938;28;20049;-95
2023/03/31 03:57:00;;;;;;;9.00;4.85;;;;;;;10.54;100.00;98900.47;5029025;28;20034;-94
2023/03/31 03:59:26;;;;;;;7.80;4.95;;;;;;;10.47;100.00;98898.00;5021857;28;20065;-95
2023/03/31 04:01:52;;;;;;;13.85;5.00;;;;;;;10.56;100.00;98915.50;5026994;28;20069;-94
2023/03/31 04:04:18;;;;;;;8.80;4.60;;;;;;;10.60;100.00;98934.91;5033590;28;20092;-94
2023/03/31 04:06:45;;;;;;;13.93;5.15;;;;;;;10.58;100.00;98926.09;5026168;28;20050;-92
2023/03/31 04:09:11;;;;;;;12.20;4.90;;;;;;;10.37;100.00;98901.78;5033465;28;20133;-94
2023/03/31 04:11:37;;;;;;;9.80;5.43;;;;;;;10.52;100.00;98931.53;5035170;28;20053;-92
2023/03/31 04:14:03;;;;;;;14.63;6.03;;;;;;;10.44;100.00;98910.47;5032491;28;20132;-94
2023/03/31 04:16:29;;;;;;;11.35;5.38;;;;;;;10.41;100.00;98911.44;5030459;28;20042;-95
2023/03/31 04:18:57;;;;;;;16.02;6.45;;;;;;;10.52;100.00;98926.22;5035087;28;20570;-93
2023/03/31 04:21:24;;;;;;;16.15;7.03;;;;;;;10.46;100.00;98913.97;5036632;28;20129;-94
2023/03/31 04:26:53;;;;;;;15.95;6.82;;;;;;;10.49;100.00;98916.56;5135878;27;20364;-94
2023/03/31 04:29:21;;;;;;;12.88;5.63;;;;;;;10.52;100.00;98920.91;5133835;28;20074;-92
2023/03/31 04:31:49;;;;;;;12.80;6.40;;;;;;;10.38;100.00;98892.03;5133918;28;20095;-94
2023/03/31 04:34:15;;;;;;;15.07;6.45;;;;;;;10.40;100.00;98891.06;5128806;28;20040;-94
2023/03/31 04:36:45;;;;;;;17.80;5.70;;;;;;;10.46;100.00;98895.38;5134645;28;20392;-94
2023/03/31 04:39:12;;;;;;;10.98;5.47;;;;;;;10.43;100.00;98895.44;5134121;28;20531;-94
2023/03/31 04:41:38;;;;;;;13.10;5.40;;;;;;;10.46;100.00;98890.06;5133639;28;20043;-94
2023/03/31 04:44:05;;;;;;;10.73;5.03;;;;;;;10.38;100.00;98871.63;5133842;28;20176;-94
2023/03/31 04:46:32;;;;;;;11.65;5.38;;;;;;;10.46;100.00;98880.28;5133144;28;20039;-93
2023/03/31 04:48:59;;;;;;;11.35;5.20;;;;;;;10.40;100.00;98859.16;5133483;28;20043;-93
2023/03/31 04:51:25;;;;;;;12.82;5.53;;;;;;;10.40;100.00;98863.63;5133697;28;20057;-93
2023/03/31 04:53:51;;;;;;;10.45;5.40;;;;;;;10.36;100.00;98868.13;5133577;28;20051;-94
2023/03/31 04:56:17;;;;;;;12.25;5.97;;;;;;;10.46;100.00;98882.94;5133217;28;20035;-93
2023/03/31 04:58:43;;;;;;;12.75;5.95;;;;;;;10.32;100.00;98861.13;5133515;28;20047;-94
2023/03/31 05:01:12;;;;;;;10.90;5.22;;;;;;;10.43;100.00;98877.72;5133321;28;20388;-95
2023/03/31 05:03:50;;;;;;;11.85;5.30;;;;;;;10.37;100.00;98877.00;5133034;28;20044;-93
2023/03/31 05:06:16;;;;;;;11.43;4.80;;;;;;;10.41;100.00;98881.28;5133480;28;20061;-92
2023/03/31 05:08:43;;;;;;;8.52;5.03;;;;;;;10.39;100.00;98881.34;5133073;28;20079;-96
2023/03/31 05:11:10;;;;;;;8.57;4.70;;;;;;;10.39;100.00;98877.84;5133226;28;20054;-93
2023/03/31 05:13:35;;;;;;;11.05;5.22;;;;;;;10.51;100.00;98898.78;5132632;28;20129;-94
2023/03/31 05:16:06;;;;;;;9.63;4.90;;;;;;;10.42;100.00;98862.66;5132021;28;20059;-95
2023/03/31 05:18:33;;;;;;;10.52;4.82;;;;;;;10.65;99.80;98896.66;5133665;28;20085;-94
2023/03/31 05:21:08;;;;;;;9.48;4.85;;;;;;;10.56;99.74;98874.72;5133070;28;20405;-96
2023/03/31 05:23:34;;;;;;;13.60;4.50;;;;;;;10.59;99.15;98870.22;5132686;28;20163;-94
2023/03/31 05:26:00;;;;;;;12.07;4.70;;;;;;;10.57;99.36;98860.53;5131466;28;20532;-94
2023/03/31 05:28:30;;;;;;;11.75;4.93;;;;;;;10.71;99.08;98879.66;5132303;28;20048;-94
2023/03/31 05:30:58;;;;;;;10.20;4.75;;;;;;;10.59;99.16;98854.25;5131711;28;20036;-94
2023/03/31 05:33:24;;;;;;;10.20;4.30;;;;;;;10.72;98.59;98875.22;5132782;28;20527;-93
2023/03/31 05:35:51;;;;;;;7.63;4.60;;;;;;;10.79;98.55;98883.00;5132460;28;20059;-94
2023/03/31 05:38:17;;;;;;;12.05;5.40;;;;;;;10.79;98.08;98871.47;5119243;28;20087;-94
2023/03/31 05:40:43;;;;;;;11.93;5.05;;;;;;;10.73;97.93;98859.22;5120644;28;20039;-93
2023/03/31 05:43:11;;;;;;;13.73;5.40;;;;;;;10.81;97.44;98865.19;5120660;28;20044;-94
2023/03/31 05:45:37;;;;;;;11.90;5.35;;;;;;;10.87;97.08;98870.38;5121924;28;20035;-94
2023/03/31 05:48:04;;;;;;;13.10;5.85;;;;;;;10.88;97.56;98877.41;5120327;28;20092;-94
2023/03/31 05:50:30;;;;;;;11.80;4.90;;;;;;;10.86;97.59;98868.63;5119544;28;20039;-94
2023/03/31 05:52:58;;;;;;;9.35;4.70;;;;;;;10.94;97.25;98878.19;5119554;28;20132;-95
2023/03/31 05:55:24;;;;;;;11.68;5.80;;;;;;;11.09;96.84;98891.06;5120011;28;20044;-95
2023/03/31 05:57:50;;;;;;;9.45;5.30;;;;;;;11.16;96.63;98878.47;5119992;28;20044;-93
2023/03/31 06:00:17;;;;;;;10.10;4.95;;;;;;;11.20;96.09;98861.50;5117825;28;20043;-93
2023/03/31 06:02:43;;;;;;;11.73;5.25;;;;;;;11.31;95.58;98852.28;5118679;28;20039;-94
2023/03/31 06:05:09;;;;;;;11.80;5.15;;;;;;;11.42;94.82;98853.78;5119215;28;20525;-94
2023/03/31 06:07:35;;;;;;;8.43;4.65;;;;;;;11.44;93.95;98839.50;5118879;28;20047;-96
2023/03/31 06:10:03;;;;;;;10.98;4.70;;;;;;;11.53;93.58;98843.66;5117836;28;20112;-95
2023/03/31 06:12:31;;;;;;;11.10;4.90;;;;;;;11.41;92.40;98809.44;5117702;28;20051;-94
2023/03/31 06:14:57;;;;;;;12.02;4.93;;;;;;;11.42;93.13;98803.19;5120842;28;20369;-96
2023/03/31 06:17:23;;;;;;;9.60;4.90;;;;;;;11.59;93.18;98824.84;5121432;28;20067;-94
2023/03/31 06:19:49;;;;;;;18.52;7.13;;;;;;;11.49;92.28;98800.31;5123191;28;20065;-94
2023/03/31 06:22:15;;;;;;;15.35;5.82;;;;;;;11.57;91.70;98809.84;5123889;28;20044;-95
2023/03/31 06:24:41;;;;;;;10.73;5.97;;;;;;;11.68;91.01;98821.91;5123428;28;20138;-96
2023/03/31 06:27:09;;;;;;;10.23;4.90;;;;;;;11.71;90.66;98821.81;5125727;28;20067;-95
2023/03/31 06:29:35;;;;;;;15.45;6.40;;;;;;;11.69;89.97;98815.66;5124803;28;20047;-94
2023/03/31 06:32:04;;;;;;;17.88;6.47;;;;;;;11.81;89.60;98834.84;5124587;28;20467;-96
2023/03/31 06:34:30;;;;;;;;;;;;;;;11.89;90.24;98852.38;5124991;28;20047;-95
2023/03/31 06:36:55;;;;;;;13.32;5.75;;;;;;;11.74;89.33;98817.31;5124642;28;19926;-96
2023/03/31 06:39:22;;;;;;;9.13;5.43;;;;;;;11.69;89.24;98812.13;5123836;28;20139;-94
2023/03/31 06:41:47;;;;;;;11.25;5.22;;;;;;;11.74;87.72;98820.84;5122691;28;20111;-94
2023/03/31 06:44:15;;;;;;;10.38;5.10;;;;;;;11.74;87.13;98810.19;5121361;28;20059;-94
2023/03/31 06:46:41;;;;;;;10.30;5.05;;;;;;;11.86;87.34;98824.91;5122048;28;20036;-95
2023/03/31 06:49:08;;;;;;;11.68;5.30;;;;;;;11.83;87.16;98819.69;5121201;28;20070;-95
2023/03/31 06:51:35;;;;;;;14.60;5.32;;;;;;;11.83;87.25;98809.91;5125731;28;20560;-95
2023/03/31 06:54:01;;;;;;;8.95;5.35;;;;;;;11.84;86.64;98802.78;5123941;28;20080;-94
2023/03/31 06:56:27;;;;;;;9.38;5.28;;;;;;;11.85;86.48;98797.41;5121556;28;20054;-94
2023/03/31 06:58:53;;;;;;;9.88;5.80;;;;;;;11.84;87.70;98800.09;5123358;28;20051;-95
2023/03/31 07:01:20;;;;;;;11.45;5.05;;;;;;;11.85;87.67;98794.75;5125376;28;20066;-95
2023/03/31 07:03:46;;;;;;;10.75;4.80;;;;;;;12.03;88.09;98813.75;5123467;28;20054;-96
2023/03/31 07:06:12;;;;;;;16.25;5.00;;;;;;;11.79;88.22;98786.06;5121675;28;20071;-94
2023/03/31 07:08:38;;;;;;;13.73;5.45;;;;;;;11.71;88.54;98789.84;5120100;28;20396;-95
2023/03/31 07:11:04;;;;;;;14.32;5.68;;;;;;;12.02;88.60;98825.34;5119204;28;20046;-94
2023/03/31 07:13:30;;;;;;;11.80;5.13;;;;;;;11.93;88.52;98794.53;5117237;28;20044;-94
2023/03/31 07:15:56;;;;;;;9.63;5.15;;;;;;;12.14;88.29;98798.28;5118574;28;20039;-94
2023/03/31 07:18:30;;;;;;;10.18;4.90;;;;;;;12.14;87.06;98771.63;5117371;28;20067;-94
2023/03/31 07:20:58;;;;;;;12.40;4.88;;;;;;;12.32;87.38;98791.47;5118452;28;20040;-94
2023/03/31 07:23:24;;;;;;;11.88;5.35;;;;;;;12.31;87.06;98769.25;5119035;28;20471;-96
2023/03/31 07:25:50;;;;;;;10.50;5.50;;;;;;;12.32;87.38;98768.34;5119981;28;20442;-95
2023/03/31 07:28:16;;;;;;;11.98;5.78;;;;;;;12.46;87.04;98783.88;5118135;28;20052;-94
2023/03/31 07:30:42;;;;;;;10.07;5.75;;;;;;;12.50;85.75;98774.84;5116077;28;20040;-92
2023/03/31 07:33:08;;;;;;;13.45;6.40;;;;;;;12.48;85.77;98789.16;5117398;28;20048;-94
2023/03/31 07:35:39;;;;;;;9.80;5.20;;;;;;;12.13;85.10;98756.56;5116531;28;20040;-92
2023/03/31 07:38:06;;;;;;;9.13;5.40;;;;;;;12.17;86.49;98768.00;5115614;28;20074;-92
2023/03/31 07:40:32;;;;;;;10.82;5.65;;;;;;;12.24;86.56;98788.19;5114499;28;20036;-93
2023/03/31 07:42:58;;;;;;;9.00;5.70;;;;;;;12.28;86.67;98784.50;5116214;28;20054;-92
2023/03/31 07:45:25;;;;;;;12.85;6.40;;;;;;;12.28;86.54;98782.69;5121679;28;20040;-95
2023/03/31 07:47:51;;;;;;;13.15;6.63;;;;;;;12.24;85.56;98790.88;5116450;28;20047;-95
2023/03/31 07:50:17;;;;;;;12.68;5.00;;;;;;;12.17;85.83;98763.53;5116784;28;20082;-93
2023/03/31 07:52:46;;;;;;;9.07;5.00;;;;;;;12.45;86.19;98792.81;5117342;28;20047;-95
2023/03/31 07:55:12;;;;;;;10.30;5.00;;;;;;;12.50;85.04;98763.31;5117395;28;20050;-94
2023/03/31 07:57:39;;;;;;;11.95;5.65;;;;;;;12.54;84.26;98759.59;5116750;28;20039;-95
2023/03/31 08:00:08;;;;;;;10.95;4.82;;;;;;;12.58;84.17;98777.25;5114577;28;20480;-93
2023/03/31 08:02:34;;;;;;;;;;;;;;;12.60;84.29;98783.41;5115037;28;20048;-92
2023/03/31 08:05:00;;;;;;;10.82;5.40;;;;;;;12.62;84.24;98778.00;5115170;28;19959;-93
2023/03/31 08:07:29;;;;;;;11.05;5.57;;;;;;;12.56;84.48;98788.91;5116228;28;20444;-94
2023/03/31 08:09:57;;;;;;;11.13;5.47;;;;;;;12.53;84.41;98742.75;5116225;28;20061;-92
2023/03/31 08:12:23;;;;;;;12.45;5.50;;;;;;;12.83;83.07;98745.19;5116234;28;20044;-95
2023/03/31 08:14:49;;;;;;;19.73;5.93;;;;;;;13.03;82.62;98759.63;5115054;28;20130;-92
2023/03/31 08:17:15;;;;;;;9.32;5.07;;;;;;;13.14;82.24;98778.75;5116272;28;20043;-93
2023/03/31 08:19:41;;;;;;;9.48;5.10;;;;;;;13.19;81.99;98781.28;5116512;28;20050;-94
2023/03/31 08:22:07;;;;;;;10.25;4.53;;;;;;;13.06;81.52;98748.84;5116233;28;20040;-93
2023/03/31 08:24:33;;;;;;;9.52;4.97;;;;;;;13.27;80.86;98769.38;5115617;28;20092;-93
2023/03/31 08:27:00;;;;;;;13.18;5.10;;;;;;;13.07;80.52;98767.44;5115417;28;20060;-91
2023/03/31 08:29:26;;;;;;;10.10;4.80;;;;;;;13.05;81.10;98761.28;5114881;28;20042;-92
2023/03/31 08:31:53;;;;;;;9.57;4.47;;;;;;;13.34;80.25;98773.59;5117243;28;20439;-93
2023/03/31 08:34:19;;;;;;;9.30;4.82;;;;;;;13.32;80.40;98754.09;5120521;28;20093;-94
2023/03/31 08:36:45;;;;;;;11.57;4.70;;;;;;;13.33;80.09;98729.09;5121365;28;20040;-93
2023/03/31 08:39:11;;;;;;;10.63;4.50;;;;;;;13.33;80.28;98734.44;5119384;28;20036;-94
2023/03/31 08:41:48;;;;;;;9.32;4.22;;;;;;;13.38;80.52;98725.38;5121542;28;20067;-95
2023/03/31 08:44:20;;;;;;;11.70;5.20;;;;;;;13.42;80.16;98698.50;5124294;28;20052;-95
2023/03/31 08:46:47;;;;;;;11.20;4.75;;;;;;;13.49;79.25;98707.16;5123968;28;20067;-94
2023/03/31 08:49:17;;;;;;;8.82;4.90;;;;;;;13.51;80.23;98721.28;5121913;28;20149;-93
2023/03/31 08:51:48;;;;;;;11.32;5.25;;;;;;;13.37;80.03;98697.81;5121421;28;20466;-94
2023/03/31 08:54:19;;;;;;;15.77;5.55;;;;;;;13.49;80.77;98720.50;5122401;28;20107;-94
2023/03/31 08:56:49;;;;;;;11.77;4.63;;;;;;;13.32;80.28;98683.78;5121976;28;20070;-94
2023/03/31 08:59:26;;;;;;;8.82;4.57;;;;;;;13.49;79.94;98717.84;5118669;28;20036;-91
2023/03/31 09:01:59;;;;;;;10.80;5.03;;;;;;;13.35;79.59;98687.19;5121692;28;20032;-90
2023/03/31 09:04:46;;;;;;;11.52;5.18;;;;;;;13.56;78.75;98695.28;5120923;28;20039;-92
2023/03/31 09:07:21;;;;;;;9.57;5.28;;;;;;;13.54;78.24;98711.38;5123826;28;20043;-94
2023/03/31 09:09:56;;;;;;;12.73;6.90;;;;;;;13.60;78.53;98688.88;5123584;28;20048;-93
2023/03/31 09:12:33;;;;;;;13.85;5.40;;;;;;;13.85;77.08;98674.50;5125442;28;20051;-95
2023/03/31 09:15:04;;;;;;;12.02;5.97;;;;;;;14.09;76.72;98672.59;5126249;28;20074;-94
2023/03/31 09:17:33;;;;;;;15.65;6.22;;;;;;;14.26;75.77;98661.16;5125735;28;20044;-93
2023/03/31 09:20:08;;;;;;;13.02;5.80;;;;;;;14.51;75.36;98667.19;5125699;28;20059;-93
2023/03/31 09:22:37;;;;;;;10.52;5.10;;;;;;;14.64;73.36;98666.63;5126441;28;20073;-95
2023/03/31 09:25:07;;;;;;;12.80;5.40;;;;;;;14.63;74.50;98694.34;5125256;28;20035;-93
2023/03/31 09:27:36;;;;;;;9.02;5.22;;;;;;;14.53;74.72;98667.09;5121539;28;20043;-95
2023/03/31 09:30:10;;;;;;;;;;;;;;;14.66;73.88;98707.59;5124312;28;20063;-94
2023/03/31 09:32:38;;;;;;;14.50;6.57;;;;;;;14.71;72.45;98673.47;5126998;28;19920;-94
2023/03/31 09:35:16;;;;;;;10.65;4.63;;;;;;;14.78;73.26;98650.81;5124438;28;20039;-94
2023/03/31 09:37:42;;;;;;;14.93;5.57;;;;;;;15.08;71.74;98629.78;5127180;28;20046;-94
2023/03/31 09:40:18;;;;;;;13.07;5.10;;;;;;;15.30;71.86;98656.41;5123236;28;20291;-94
2023/03/31 09:42:45;;;;;;;7.68;4.80;;;;;;;15.28;70.85;98647.56;5125154;28;20043;-93
2023/03/31 09:45:16;;;;;;;10.80;5.07;;;;;;;15.33;70.88;98642.88;5124169;28;20044;-95
2023/03/31 09:47:45;;;;;;;14.35;5.45;;;;;;;15.43;70.33;98634.38;5123695;28;20073;-94
2023/03/31 09:50:13;;;;;;;12.50;4.85;;;;;;;16.14;68.88;98658.56;5124083;28;20112;-94
2023/03/31 09:52:42;;;;;;;13.98;5.53;;;;;;;16.48;67.46;98640.66;5124524;28;20039;-93
2023/03/31 09:55:19;;;;;;;13.10;6.20;;;;;;;16.31;66.66;98612.94;5124594;28;20114;-94
2023/03/31 09:57:45;;;;;;;14.77;6.25;;;;;;;16.15;67.89;98612.84;5125117;28;20044;-94
2023/03/31 10:00:16;;;;;;;10.57;4.80;;;;;;;16.24;66.48;98611.50;5123767;28;20047;-95
2023/03/31 10:02:47;;;;;;;10.00;5.07;;;;;;;16.14;66.77;98635.28;5124611;28;20115;-95
2023/03/31 10:05:26;;;;;;;12.50;5.40;;;;;;;15.86;67.89;98634.97;5123733;28;20039;-93
2023/03/31 10:08:11;;;;;;;17.48;6.53;;;;;;;15.94;67.29;98616.63;5124209;28;20047;-95
2023/03/31 10:10:37;;;;;;;15.25;6.28;;;;;;;15.82;67.56;98613.66;5123673;28;20086;-94
2023/03/31 10:13:09;;;;;;;8.40;5.55;;;;;;;15.91;67.58;98606.09;5123601;28;20067;-93
2023/03/31 10:15:38;;;;;;;11.25;5.13;;;;;;;15.98;67.98;98619.13;5124789;28;20097;-94
2023/03/31 10:18:04;;;;;;;;;;;;;;;16.02;67.31;98628.72;5122863;28;20048;-94
2023/03/31 10:20:33;;;;;;;12.45;5.28;;;;;;;15.98;67.47;98586.03;5121978;28;19919;-94
2023/03/31 10:23:03;;;;;;;11.88;5.07;;;;;;;16.70;64.34;98597.41;5123033;28;20085;-96
2023/03/31 10:25:33;;;;;;;10.82;4.85;;;;;;;17.11;63.46;98592.50;5124279;28;20048;-94
2023/03/31 10:28:01;;;;;;;10.68;4.45;;;;;;;17.44;61.96;98586.13;5123314;28;20047;-93
2023/03/31 10:30:34;;;;;;;10.27;4.80;;;;;;;17.38;62.05;98583.78;5123234;28;20556;-94
2023/03/31 10:33:05;;;;;;;8.90;4.35;;;;;;;17.57;62.00;98579.06;5124017;28;20745;-96
2023/03/31 10:35:33;;;;;;;9.60;4.90;;;;;;;17.47;61.92;98582.41;5124289;28;20074;-93
2023/03/31 10:38:05;;;;;;;14.95;5.13;;;;;;;16.87;62.08;98573.22;5125599;28;20039;-94
2023/03/31 10:40:33;;;;;;;10.77;5.13;;;;;;;16.34;64.88;98582.38;5124609;28;20048;-95
2023/03/31 10:43:04;;;;;;;10.68;5.00;;;;;;;15.95;66.31;98578.16;5125823;28;20043;-95
2023/03/31 10:45:42;;;;;;;11.68;5.80;;;;;;;15.98;67.31;98602.13;5128736;28;20040;-94
2023/03/31 10:48:17;;;;;;;13.02;5.15;;;;;;;15.60;67.70;98572.78;5127637;28;20052;-95
2023/03/31 10:50:44;;;;;;;12.27;5.00;;;;;;;15.37;68.56;98582.81;5122849;28;20052;-94
2023/03/31 10:53:13;;;;;;;11.43;4.90;;;;;;;15.31;69.06;98548.31;5122470;28;20103;-94
2023/03/31 10:55:48;;;;;;;11.60;5.28;;;;;;;15.19;69.63;98563.16;5123051;28;20040;-93
2023/03/31 10:58:28;;;;;;;8.02;4.78;;;;;;;15.12;69.91;98547.50;5122823;28;20506;-93
2023/03/31 11:01:03;;;;;;;9.43;5.22;;;;;;;14.83;71.39;98544.38;5122066;28;20099;-93
2023/03/31 11:03:55;;;;;;;10.73;5.07;;;;;;;15.01;71.46;98564.09;5122036;28;20043;-95
2023/03/31 11:06:28;;;;;;;11.10;5.38;;;;;;;15.07;71.21;98565.56;5118444;28;20035;-94
2023/03/31 11:09:04;;;;;;;9.45;5.30;;;;;;;15.20;70.32;98531.88;5119770;28;20508;-94
2023/03/31 11:11:47;;;;;;;9.65;5.40;;;;;;;15.09;71.92;98555.66;5119356;28;20065;-94
2023/03/31 11:14:23;;;;;;;10.60;5.30;;;;;;;15.02;71.73;98541.69;5119411;28;20051;-95
2023/03/31 11:16:56;;;;;;;8.32;4.90;;;;;;;15.12;71.42;98560.88;5120590;28;20057;-95
2023/03/31 11:19:36;;;;;;;12.23;5.50;;;;;;;14.92;72.36;98548.44;5118839;28;20040;-93
2023/03/31 11:22:08;;;;;;;10.73;5.88;;;;;;;14.80;72.70;98552.59;5118314;28;20131;-94
2023/03/31 11:24:53;;;;;;;10.02;5.22;;;;;;;14.82;73.37;98540.00;5120158;28;20052;-94
2023/03/31 11:27:34;;;;;;;16.48;5.88;;;;;;;14.88;72.80;98526.31;5120443;28;20044;-93
2023/03/31 11:30:07;;;;;;;7.97;5.32;;;;;;;14.86;72.53;98506.78;5118894;28;20515;-95
2023/03/31 11:32:46;;;;;;;10.32;5.28;;;;;;;14.91;73.28;98510.09;5119584;28;20477;-93
2023/03/31 11:35:31;;;;;;;14.73;6.30;;;;;;;14.92;74.02;98519.88;5117948;28;20036;-95
2023/03/31 11:38:16;;;;;;;11.82;5.45;;;;;;;15.00;73.10;98480.19;5117403;28;20070;-95
2023/03/31 11:40:59;;;;;;;13.13;5.20;;;;;;;15.44;71.69;98488.72;5116625;28;20488;-94